Time;durP1;ratioP1;P1;durP2;ratioP2;P2;SDS_P1;SDS_P2;PMS_P1;PMS_P2;Temp;Humidity;BMP_temperature;BMP_pressure;BME280_temperature;BME280_humidity;BME280_pressure;Samples;Min_cycle;Max_cycle;Signal;HPM_P1;HPM_P2
2023/06/30 00:01:28;;;;;;;6.53;5.18;;;19.70;99.90;;;;;;5037933;28;20046;-52
2023/06/30 00:03:55;;;;;;;5.53;5.03;;;19.70;99.90;;;;;;5026635;28;20121;-55
2023/06/30 00:06:20;;;;;;;5.57;5.03;;;19.70;99.90;;;;;;5035093;28;20052;-54
2023/06/30 00:08:48;;;;;;;6.18;5.60;;;19.70;99.90;;;;;;5023595;28;20022;-54
2023/06/30 00:11:14;;;;;;;5.43;4.93;;;19.60;99.90;;;;;;5016193;28;20026;-55
2023/06/30 00:13:39;;;;;;;7.97;5.50;;;19.70;99.90;;;;;;5037380;28;20018;-53
2023/06/30 00:16:05;;;;;;;6.20;5.65;;;19.60;99.90;;;;;;5024147;28;20056;-55
2023/06/30 00:18:30;;;;;;;6.53;5.85;;;19.60;99.90;;;;;;5029337;28;20044;-53
2023/06/30 00:20:57;;;;;;;5.78;5.25;;;19.60;99.90;;;;;;5031985;28;20123;-54
2023/06/30 00:23:22;;;;;;;8.23;5.55;;;19.60;99.90;;;;;;5038230;28;20570;-53
2023/06/30 00:25:48;;;;;;;5.28;4.78;;;19.60;99.90;;;;;;5031792;28;20029;-54
2023/06/30 00:28:13;;;;;;;5.40;4.90;;;19.70;99.90;;;;;;5038902;28;20037;-53
2023/06/30 00:30:39;;;;;;;4.82;4.45;;;19.70;99.90;;;;;;5030264;28;20050;-55
2023/06/30 00:33:04;;;;;;;7.25;5.43;;;19.70;99.90;;;;;;5036017;28;20409;-53
2023/06/30 00:35:30;;;;;;;5.20;4.70;;;19.70;99.90;;;;;;5026264;28;20452;-54
2023/06/30 00:37:55;;;;;;;5.38;4.88;;;19.70;99.90;;;;;;5040760;28;20032;-51
2023/06/30 00:40:21;;;;;;;5.65;4.80;;;19.70;99.90;;;;;;5035856;28;20515;-54
2023/06/30 00:42:46;;;;;;;4.97;4.50;;;19.70;99.90;;;;;;5027675;28;20033;-55
2023/06/30 00:45:12;;;;;;;4.85;4.45;;;19.70;99.90;;;;;;5030661;28;20108;-50
2023/06/30 00:47:37;;;;;;;7.53;4.90;;;19.70;99.90;;;;;;5030543;28;20509;-54
2023/06/30 00:50:03;;;;;;;6.00;4.57;;;19.70;99.90;;;;;;5041789;28;20090;-56
2023/06/30 00:52:29;;;;;;;5.43;4.97;;;19.70;99.90;;;;;;5029797;28;20025;-55
2023/06/30 00:54:54;;;;;;;4.93;4.47;;;19.70;99.90;;;;;;5046845;28;20072;-55
2023/06/30 00:57:20;;;;;;;4.95;4.43;;;19.70;99.90;;;;;;5049324;28;20029;-55
2023/06/30 00:59:46;;;;;;;5.97;5.30;;;19.70;99.90;;;;;;5028192;28;20048;-55
2023/06/30 01:02:22;;;;;;;7.70;5.90;;;19.70;99.90;;;;;;5048717;28;20037;-54
2023/06/30 01:05:06;;;;;;;6.25;5.43;;;19.70;99.90;;;;;;5022619;28;20021;-54
2023/06/30 01:07:37;;;;;;;6.57;5.47;;;19.70;99.90;;;;;;5049148;28;20040;-55
2023/06/30 01:10:14;;;;;;;6.95;5.30;;;19.70;99.90;;;;;;5023518;28;20025;-53
2023/06/30 01:12:42;;;;;;;6.10;5.50;;;19.70;99.90;;;;;;5009274;28;20099;-53
2023/06/30 01:15:08;;;;;;;7.00;5.75;;;19.70;99.90;;;;;;5029207;28;20037;-56
2023/06/30 01:17:35;;;;;;;5.95;5.35;;;19.70;99.90;;;;;;5047811;28;20025;-54
2023/06/30 01:20:04;;;;;;;6.95;6.25;;;19.70;99.90;;;;;;5027232;28;20125;-52
2023/06/30 01:22:39;;;;;;;7.50;5.93;;;19.60;99.90;;;;;;5048422;28;20074;-54
2023/06/30 01:25:09;;;;;;;6.95;6.10;;;19.60;99.90;;;;;;5023386;28;20096;-55
2023/06/30 01:27:36;;;;;;;6.32;5.40;;;19.60;99.90;;;;;;5048375;28;20047;-52
2023/06/30 01:30:05;;;;;;;6.35;5.50;;;19.60;99.90;;;;;;5042869;28;20125;-53
2023/06/30 01:32:31;;;;;;;6.55;5.95;;;19.60;99.90;;;;;;5028605;28;20033;-55
2023/06/30 01:34:56;;;;;;;6.25;5.65;;;19.60;99.90;;;;;;5030190;28;20128;-53
2023/06/30 01:37:22;;;;;;;5.53;5.03;;;19.60;99.90;;;;;;5047770;28;20029;-52
2023/06/30 01:39:47;;;;;;;6.00;5.28;;;19.60;99.90;;;;;;5027143;28;20072;-52
2023/06/30 01:42:13;;;;;;;7.07;5.43;;;19.60;99.90;;;;;;5047780;28;20447;-55
2023/06/30 01:44:40;;;;;;;8.00;6.00;;;19.60;99.90;;;;;;5026928;28;20382;-54
2023/06/30 01:47:09;;;;;;;7.53;6.03;;;19.70;99.90;;;;;;5047886;28;20071;-55
2023/06/30 01:49:34;;;;;;;9.20;6.57;;;19.70;99.90;;;;;;5026887;28;20113;-55
2023/06/30 01:52:01;;;;;;;9.55;7.18;;;19.70;99.90;;;;;;5047520;28;20471;-53
2023/06/30 01:54:26;;;;;;;8.10;6.60;;;19.70;99.90;;;;;;5026728;28;20034;-52
2023/06/30 01:56:52;;;;;;;8.27;6.82;;;19.70;99.90;;;;;;5047460;28;20039;-54
2023/06/30 01:59:17;;;;;;;8.18;5.60;;;19.70;99.90;;;;;;5036795;28;20554;-55
2023/06/30 02:01:43;;;;;;;11.98;7.63;;;19.70;99.90;;;;;;5028534;28;20060;-50
2023/06/30 02:04:11;;;;;;;9.75;6.95;;;19.70;99.90;;;;;;5045198;28;20522;-49
2023/06/30 02:06:37;;;;;;;9.38;7.53;;;19.70;99.90;;;;;;5025260;28;20025;-53
2023/06/30 02:09:03;;;;;;;10.65;7.50;;;19.70;99.90;;;;;;5045320;28;20048;-54
2023/06/30 02:11:28;;;;;;;9.23;7.50;;;19.70;99.90;;;;;;5028465;28;20067;-54
2023/06/30 02:13:54;;;;;;;11.68;8.00;;;19.70;99.90;;;;;;5045198;28;20457;-52
2023/06/30 02:16:19;;;;;;;11.48;7.90;;;19.70;99.90;;;;;;5047907;28;20121;-54
2023/06/30 02:18:45;;;;;;;9.68;7.88;;;19.70;99.90;;;;;;5032226;28;20033;-55
2023/06/30 02:21:10;;;;;;;9.60;7.85;;;19.70;99.90;;;;;;5047782;28;20513;-53
2023/06/30 02:23:36;;;;;;;12.77;9.65;;;19.60;99.90;;;;;;5030403;28;20120;-55
2023/06/30 02:26:01;;;;;;;12.50;8.27;;;19.60;99.90;;;;;;5047903;28;20037;-55
2023/06/30 02:28:27;;;;;;;13.45;9.27;;;19.60;99.90;;;;;;5029337;28;20340;-53
2023/06/30 02:30:53;;;;;;;12.05;8.70;;;19.60;99.90;;;;;;5047587;28;20037;-55
2023/06/30 02:33:19;;;;;;;11.10;8.85;;;19.50;99.90;;;;;;5028109;28;20055;-52
2023/06/30 02:35:44;;;;;;;12.27;9.23;;;19.50;99.90;;;;;;5047681;28;20097;-53
2023/06/30 02:38:10;;;;;;;12.75;9.23;;;19.50;99.90;;;;;;5026952;28;20509;-54
2023/06/30 02:40:36;;;;;;;12.48;8.82;;;19.40;99.90;;;;;;5047563;28;20063;-53
2023/06/30 02:43:02;;;;;;;13.73;9.15;;;19.40;99.90;;;;;;5028085;28;20032;-54
2023/06/30 02:45:28;;;;;;;10.80;8.25;;;19.40;99.90;;;;;;5045239;28;20411;-55
2023/06/30 02:47:53;;;;;;;14.40;9.65;;;19.40;99.90;;;;;;5032209;28;20022;-54
2023/06/30 02:50:27;;;;;;;13.10;9.35;;;19.40;99.90;;;;;;5030937;28;20037;-54
2023/06/30 02:52:53;;;;;;;12.27;9.18;;;19.40;99.90;;;;;;5011971;28;20038;-52
2023/06/30 02:55:18;;;;;;;13.95;9.55;;;19.30;99.90;;;;;;5048277;28;20033;-53
2023/06/30 02:57:44;;;;;;;13.55;9.18;;;19.30;99.90;;;;;;5051575;28;20029;-54
2023/06/30 03:00:10;;;;;;;13.88;9.02;;;19.30;99.90;;;;;;5030354;28;20056;-53
2023/06/30 03:02:35;;;;;;;13.05;9.57;;;19.30;99.90;;;;;;5051023;28;20033;-54
2023/06/30 03:05:01;;;;;;;12.32;9.00;;;19.30;99.90;;;;;;5030497;28;20124;-55
2023/06/30 03:07:26;;;;;;;12.77;9.07;;;19.30;99.90;;;;;;5051603;28;20060;-53
2023/06/30 03:09:52;;;;;;;12.65;9.02;;;19.30;99.90;;;;;;5030305;28;20048;-54
2023/06/30 03:12:17;;;;;;;13.50;9.60;;;19.30;99.90;;;;;;5050847;28;20070;-55
2023/06/30 03:14:44;;;;;;;15.05;9.88;;;19.30;99.90;;;;;;5028314;28;20034;-56
2023/06/30 03:17:09;;;;;;;12.93;8.63;;;19.20;99.90;;;;;;5031543;28;20022;-54
2023/06/30 03:19:35;;;;;;;13.35;10.25;;;19.20;99.90;;;;;;5048367;28;20427;-53
2023/06/30 03:22:00;;;;;;;12.57;9.70;;;19.20;99.90;;;;;;5051074;28;20091;-55
2023/06/30 03:24:26;;;;;;;16.13;10.07;;;19.20;99.90;;;;;;5031528;28;20138;-55
2023/06/30 03:26:51;;;;;;;15.65;10.00;;;19.20;99.90;;;;;;5048550;28;20071;-53
2023/06/30 03:29:17;;;;;;;12.65;9.40;;;19.20;99.90;;;;;;5036002;28;20045;-52
2023/06/30 03:31:42;;;;;;;12.68;8.90;;;19.20;99.90;;;;;;5031192;28;20025;-56
2023/06/30 03:34:08;;;;;;;14.52;10.63;;;19.20;99.90;;;;;;5050480;28;20033;-56
2023/06/30 03:36:33;;;;;;;15.68;10.48;;;19.20;99.90;;;;;;5029132;28;20036;-54
2023/06/30 03:38:59;;;;;;;14.77;9.25;;;19.20;99.90;;;;;;5050755;28;20032;-54
2023/06/30 03:41:25;;;;;;;12.25;8.57;;;19.20;99.90;;;;;;5032345;28;20521;-54
2023/06/30 03:43:50;;;;;;;12.27;9.32;;;19.20;99.90;;;;;;5050975;28;20514;-54
2023/06/30 03:46:16;;;;;;;16.00;10.90;;;19.20;99.90;;;;;;5030899;28;20132;-54
2023/06/30 03:48:42;;;;;;;15.73;9.48;;;19.20;99.90;;;;;;5050927;28;20028;-53
2023/06/30 03:51:07;;;;;;;12.13;9.20;;;19.20;99.90;;;;;;5029809;28;20261;-55
2023/06/30 03:53:33;;;;;;;12.23;9.40;;;19.30;99.90;;;;;;5051044;28;20035;-54
2023/06/30 03:55:58;;;;;;;12.23;9.45;;;19.30;99.90;;;;;;5031312;28;20098;-58
2023/06/30 03:58:24;;;;;;;13.93;9.75;;;19.30;99.90;;;;;;5047517;28;20040;-55
2023/06/30 04:00:49;;;;;;;12.60;9.70;;;19.40;99.90;;;;;;5050490;28;20037;-55
2023/06/30 04:03:15;;;;;;;15.05;10.80;;;19.40;99.90;;;;;;5029725;28;20033;-54
2023/06/30 04:05:40;;;;;;;15.98;10.10;;;19.40;99.90;;;;;;5036259;28;20045;-55
2023/06/30 04:08:06;;;;;;;16.23;10.32;;;19.40;99.90;;;;;;5031343;28;20508;-57
2023/06/30 04:10:32;;;;;;;18.00;11.27;;;19.30;99.90;;;;;;5050055;28;20036;-54
2023/06/30 04:12:57;;;;;;;14.98;10.68;;;19.30;99.90;;;;;;5029392;28;20021;-56
2023/06/30 04:15:23;;;;;;;13.52;10.23;;;19.20;99.90;;;;;;5048369;28;20690;-55
2023/06/30 04:17:48;;;;;;;13.45;10.15;;;19.20;99.90;;;;;;5043267;28;20045;-54
2023/06/30 04:20:15;;;;;;;17.10;11.10;;;19.20;99.90;;;;;;5050045;28;20045;-55
2023/06/30 04:22:41;;;;;;;16.00;11.40;;;19.20;99.90;;;;;;5028850;28;20021;-57
2023/06/30 04:25:07;;;;;;;14.00;10.38;;;19.20;99.90;;;;;;5036825;28;20125;-52
2023/06/30 04:27:33;;;;;;;13.95;10.48;;;19.20;99.90;;;;;;5035676;28;20034;-55
2023/06/30 04:29:58;;;;;;;14.48;10.07;;;19.20;99.90;;;;;;5038607;28;20049;-55
2023/06/30 04:32:24;;;;;;;14.15;10.10;;;19.20;99.90;;;;;;5047211;28;20047;-55
2023/06/30 04:34:49;;;;;;;15.07;10.18;;;19.20;99.90;;;;;;5027186;28;20025;-54
2023/06/30 04:37:15;;;;;;;14.15;9.70;;;19.20;99.90;;;;;;5049259;28;20040;-56
2023/06/30 04:39:42;;;;;;;13.10;9.88;;;19.20;99.90;;;;;;5024139;28;20523;-57
2023/06/30 04:42:08;;;;;;;15.05;10.15;;;19.30;99.90;;;;;;5042443;28;20025;-57
2023/06/30 04:44:33;;;;;;;15.82;10.05;;;19.30;99.90;;;;;;5036819;28;20081;-55
2023/06/30 04:46:59;;;;;;;10.90;8.68;;;19.40;99.90;;;;;;5033988;28;20025;-55
2023/06/30 04:49:24;;;;;;;16.10;10.40;;;19.40;99.90;;;;;;5042697;28;20045;-54
2023/06/30 04:51:50;;;;;;;15.93;11.13;;;19.50;99.90;;;;;;5029709;28;20029;-55
2023/06/30 04:54:15;;;;;;;13.15;9.68;;;19.60;99.90;;;;;;5037355;28;20396;-54
2023/06/30 04:56:41;;;;;;;16.17;9.82;;;19.60;99.90;;;;;;5048954;28;20021;-56
2023/06/30 04:59:06;;;;;;;13.23;9.85;;;19.80;99.90;;;;;;5028617;28;20116;-56
2023/06/30 05:01:32;;;;;;;12.43;9.48;;;20.00;99.90;;;;;;5048998;28;20048;-56
2023/06/30 05:03:58;;;;;;;14.55;9.25;;;20.20;99.90;;;;;;5028201;28;20022;-56
2023/06/30 05:06:24;;;;;;;12.75;9.93;;;20.50;99.90;;;;;;5041338;28;20044;-56
2023/06/30 05:08:50;;;;;;;12.95;9.73;;;20.70;99.90;;;;;;5027889;28;20025;-54
2023/06/30 05:11:15;;;;;;;13.45;10.48;;;21.00;99.90;;;;;;5028789;28;20096;-55
2023/06/30 05:13:41;;;;;;;14.35;10.50;;;21.30;99.90;;;;;;5033003;28;20034;-56
2023/06/30 05:16:06;;;;;;;13.32;9.68;;;21.70;99.90;;;;;;5027393;28;20124;-56
2023/06/30 05:18:32;;;;;;;11.07;8.95;;;22.00;99.90;;;;;;5048089;28;20028;-57
2023/06/30 05:20:57;;;;;;;13.57;10.25;;;22.10;99.90;;;;;;5027700;28;20120;-55
2023/06/30 05:23:23;;;;;;;14.80;10.45;;;22.30;99.90;;;;;;5047775;28;20249;-57
2023/06/30 05:25:49;;;;;;;14.07;9.20;;;22.50;99.90;;;;;;5027396;28;20049;-56
2023/06/30 05:28:15;;;;;;;13.60;9.88;;;22.80;99.90;;;;;;5048018;28;20039;-57
2023/06/30 05:30:41;;;;;;;13.13;9.68;;;23.00;99.90;;;;;;5042838;28;20056;-54
2023/06/30 05:33:06;;;;;;;14.40;9.70;;;23.40;98.90;;;;;;5048628;28;20024;-57
2023/06/30 05:35:32;;;;;;;15.73;10.40;;;23.90;97.00;;;;;;5027570;28;20034;-58
2023/06/30 05:37:57;;;;;;;12.57;9.32;;;24.40;95.60;;;;;;5047701;28;20079;-55
2023/06/30 05:40:23;;;;;;;10.57;8.27;;;24.80;93.70;;;;;;5027154;28;20069;-56
2023/06/30 05:42:48;;;;;;;13.00;9.23;;;25.40;91.10;;;;;;5047907;28;20037;-55
2023/06/30 05:45:14;;;;;;;12.43;9.02;;;25.80;89.50;;;;;;5027160;28;20052;-55
2023/06/30 05:47:39;;;;;;;12.18;8.82;;;25.90;88.00;;;;;;5047542;28;20103;-56
2023/06/30 05:50:05;;;;;;;13.20;9.68;;;26.20;84.70;;;;;;5037569;28;20055;-59
2023/06/30 05:52:31;;;;;;;9.35;8.07;;;27.00;81.10;;;;;;5028821;28;20347;-56
2023/06/30 05:54:56;;;;;;;11.18;8.77;;;27.50;77.50;;;;;;5043983;28;20504;-57
2023/06/30 05:57:22;;;;;;;12.48;8.15;;;28.10;75.60;;;;;;5027365;28;20103;-57
2023/06/30 05:59:47;;;;;;;10.82;7.95;;;28.60;73.50;;;;;;5045335;28;20047;-56
2023/06/30 06:02:13;;;;;;;12.43;8.85;;;28.90;72.70;;;;;;5030364;28;20100;-58
2023/06/30 06:04:38;;;;;;;12.25;8.30;;;29.30;69.10;;;;;;5043784;28;20026;-55
2023/06/30 06:07:05;;;;;;;10.52;9.05;;;29.50;67.50;;;;;;5026714;28;20089;-57
2023/06/30 06:09:31;;;;;;;11.60;8.52;;;29.90;65.80;;;;;;5028690;28;20036;-57
2023/06/30 06:11:57;;;;;;;11.98;9.52;;;30.30;63.30;;;;;;5044151;28;20045;-56
2023/06/30 06:14:22;;;;;;;10.40;9.02;;;30.60;60.20;;;;;;5028442;28;20029;-56
2023/06/30 06:16:48;;;;;;;12.07;9.13;;;31.00;58.80;;;;;;5045245;28;20712;-57
2023/06/30 06:19:14;;;;;;;11.05;8.40;;;31.40;56.50;;;;;;5028542;28;20026;-58
2023/06/30 06:21:40;;;;;;;10.57;8.98;;;31.40;54.30;;;;;;5047319;28;20119;-57
2023/06/30 06:24:07;;;;;;;12.52;9.27;;;31.20;54.50;;;;;;5027020;28;20209;-59
2023/06/30 06:26:33;;;;;;;14.25;10.25;;;31.00;53.80;;;;;;5047536;28;20025;-58
2023/06/30 06:28:58;;;;;;;10.00;8.52;;;30.50;53.60;;;;;;5028842;28;20072;-56
2023/06/30 06:31:27;;;;;;;11.68;9.57;;;30.10;52.90;;;;;;5048241;28;20044;-58
2023/06/30 06:33:52;;;;;;;10.73;8.15;;;29.90;52.90;;;;;;5026757;28;20064;-58
2023/06/30 06:36:18;;;;;;;10.70;8.50;;;29.50;53.20;;;;;;5047463;28;20112;-55
2023/06/30 06:38:43;;;;;;;11.00;8.68;;;29.20;53.40;;;;;;5026913;28;20029;-57
2023/06/30 06:41:09;;;;;;;10.55;8.43;;;29.00;53.60;;;;;;5047343;28;20073;-59
2023/06/30 06:43:34;;;;;;;12.07;8.75;;;28.80;54.20;;;;;;5026894;28;20142;-56
2023/06/30 06:46:00;;;;;;;13.18;9.13;;;28.50;54.70;;;;;;5047271;28;20031;-59
2023/06/30 06:48:27;;;;;;;10.40;8.65;;;28.10;55.10;;;;;;5026668;28;20025;-55
2023/06/30 06:51:00;;;;;;;11.65;9.20;;;27.80;55.50;;;;;;5047541;28;20417;-56
2023/06/30 06:53:36;;;;;;;13.05;9.18;;;27.60;56.10;;;;;;5020076;28;20048;-57
2023/06/30 06:56:02;;;;;;;;;;;27.30;57.00;;;;;;5008929;28;20112;-57
2023/06/30 06:58:30;;;;;;;10.57;8.13;;;27.10;55.20;;;;;;5030746;28;19916;-55
2023/06/30 07:00:56;;;;;;;12.57;8.73;;;26.90;58.10;;;;;;5047256;28;20432;-56
2023/06/30 07:03:22;;;;;;;13.80;10.13;;;26.80;58.40;;;;;;5026476;28;20025;-56
2023/06/30 07:05:48;;;;;;;11.27;8.43;;;26.60;58.60;;;;;;5044703;28;20021;-57
2023/06/30 07:08:15;;;;;;;11.60;8.50;;;26.50;59.10;;;;;;5026429;28;20032;-57
2023/06/30 07:10:41;;;;;;;11.30;8.88;;;26.50;59.30;;;;;;5047159;28;20038;-57
2023/06/30 07:13:07;;;;;;;13.55;9.70;;;26.40;59.30;;;;;;5026512;28;20029;-56
2023/06/30 07:15:33;;;;;;;13.13;10.32;;;26.30;59.50;;;;;;5046985;28;20025;-56
2023/06/30 07:17:59;;;;;;;13.23;9.93;;;26.20;59.70;;;;;;5026102;28;20029;-57
2023/06/30 07:20:25;;;;;;;11.90;9.15;;;26.10;59.80;;;;;;5046864;28;20044;-54
2023/06/30 07:22:53;;;;;;;12.50;9.23;;;26.00;60.00;;;;;;5026226;28;20025;-58
2023/06/30 07:25:19;;;;;;;11.88;9.50;;;26.00;60.20;;;;;;5047154;28;20033;-56
2023/06/30 07:27:54;;;;;;;11.95;9.32;;;26.00;60.10;;;;;;5026238;28;20029;-55
2023/06/30 07:30:21;;;;;;;14.75;9.43;;;26.00;60.40;;;;;;5007860;28;20589;-56
2023/06/30 07:32:48;;;;;;;13.95;9.10;;;26.10;60.30;;;;;;5036433;28;20124;-57
2023/06/30 07:35:14;;;;;;;12.88;9.20;;;26.10;60.30;;;;;;5050506;28;20029;-55
2023/06/30 07:37:39;;;;;;;11.57;9.13;;;26.20;60.50;;;;;;5029742;28;20064;-53
2023/06/30 07:40:06;;;;;;;13.00;9.52;;;26.20;60.60;;;;;;5031128;28;20072;-54
2023/06/30 07:42:32;;;;;;;13.13;10.07;;;26.20;60.30;;;;;;5040821;28;20079;-53
2023/06/30 07:44:57;;;;;;;14.07;9.02;;;26.00;60.20;;;;;;5031054;28;20033;-54
2023/06/30 07:47:23;;;;;;;14.57;11.18;;;25.80;60.70;;;;;;5043108;28;20037;-55
2023/06/30 07:49:48;;;;;;;12.27;9.60;;;25.70;62.20;;;;;;5031023;28;20029;-56
2023/06/30 07:52:14;;;;;;;13.75;10.15;;;25.50;61.60;;;;;;5044300;28;20644;-57
2023/06/30 07:54:41;;;;;;;12.95;10.02;;;25.50;61.90;;;;;;5030881;28;20041;-55
2023/06/30 07:57:07;;;;;;;11.80;8.68;;;25.40;62.40;;;;;;5045397;28;20037;-55
2023/06/30 07:59:33;;;;;;;10.57;8.75;;;25.50;62.60;;;;;;5030893;28;20590;-57
2023/06/30 08:01:58;;;;;;;11.63;8.88;;;25.50;62.10;;;;;;5046345;28;20041;-53
2023/06/30 08:04:24;;;;;;;13.38;9.68;;;25.50;61.60;;;;;;5030643;28;20437;-53
2023/06/30 08:06:49;;;;;;;13.50;9.20;;;25.50;61.80;;;;;;5042940;28;20106;-53
2023/06/30 08:09:15;;;;;;;11.45;8.52;;;25.60;61.60;;;;;;5030676;28;20041;-53
2023/06/30 08:11:40;;;;;;;11.50;9.05;;;25.60;61.50;;;;;;5049717;28;20036;-55
2023/06/30 08:14:06;;;;;;;12.55;8.43;;;25.60;61.30;;;;;;5048540;28;20033;-54
2023/06/30 08:16:32;;;;;;;12.55;9.60;;;25.60;61.60;;;;;;5050184;28;20021;-56
2023/06/30 08:18:58;;;;;;;14.35;10.52;;;25.50;61.60;;;;;;5027872;28;20566;-55
2023/06/30 08:21:24;;;;;;;12.75;9.40;;;25.20;62.40;;;;;;5049382;28;20045;-55
2023/06/30 08:23:50;;;;;;;13.60;9.75;;;25.00;63.00;;;;;;5028826;28;20022;-55
2023/06/30 08:26:16;;;;;;;14.90;11.00;;;25.00;63.40;;;;;;5049329;28;20047;-51
2023/06/30 08:28:41;;;;;;;12.15;9.60;;;25.10;63.70;;;;;;5028651;28;20370;-54
2023/06/30 08:31:06;;;;;;;12.57;9.25;;;25.00;64.00;;;;;;5049991;28;20044;-53
2023/06/30 08:33:32;;;;;;;12.73;9.45;;;25.10;63.90;;;;;;5028882;28;20063;-55
2023/06/30 08:35:58;;;;;;;12.52;9.02;;;25.20;63.90;;;;;;5049300;28;20033;-54
2023/06/30 08:38:24;;;;;;;14.00;10.50;;;25.30;63.60;;;;;;5028646;28;20453;-54
2023/06/30 08:40:49;;;;;;;13.02;10.43;;;25.40;62.80;;;;;;5049058;28;20056;-53
2023/06/30 08:43:19;;;;;;;13.73;9.23;;;25.60;62.20;;;;;;5028651;28;20094;-55
2023/06/30 08:45:48;;;;;;;14.52;9.93;;;25.90;61.00;;;;;;5009886;28;20030;-55
2023/06/30 08:48:18;;;;;;;13.00;10.10;;;26.10;60.40;;;;;;5035492;28;20075;-54
2023/06/30 08:50:44;;;;;;;13.02;10.30;;;26.10;60.00;;;;;;5049605;28;20035;-56
2023/06/30 08:53:10;;;;;;;13.52;9.82;;;26.10;59.90;;;;;;5028211;28;20026;-55
2023/06/30 08:55:36;;;;;;;16.67;10.82;;;26.00;59.90;;;;;;5048781;28;20044;-53
2023/06/30 08:58:01;;;;;;;13.27;10.48;;;25.80;59.80;;;;;;5028208;28;20401;-54
2023/06/30 09:00:27;;;;;;;13.10;10.20;;;25.50;60.00;;;;;;5048711;28;20037;-52
2023/06/30 09:02:58;;;;;;;14.52;10.98;;;25.40;60.80;;;;;;5028285;28;20065;-54
2023/06/30 09:05:25;;;;;;;13.77;9.50;;;25.20;60.50;;;;;;5034180;28;20052;-55
2023/06/30 09:07:55;;;;;;;15.57;10.48;;;25.10;60.60;;;;;;5046594;28;20035;-52
2023/06/30 09:10:27;;;;;;;13.05;9.15;;;25.10;60.60;;;;;;5029622;28;20041;-55
2023/06/30 09:12:57;;;;;;;14.68;10.38;;;25.00;60.70;;;;;;5037748;28;20035;-53
2023/06/30 09:15:24;;;;;;;15.70;10.18;;;25.00;60.70;;;;;;5009686;28;20205;-54
2023/06/30 09:17:54;;;;;;;11.38;9.35;;;24.90;60.60;;;;;;5037385;28;20030;-54
2023/06/30 09:20:24;;;;;;;12.68;10.40;;;24.80;60.80;;;;;;5048911;28;20029;-55
2023/06/30 09:22:50;;;;;;;14.52;10.48;;;24.80;61.20;;;;;;5027595;28;20018;-55
2023/06/30 09:25:24;;;;;;;16.50;11.40;;;24.80;61.30;;;;;;5048393;28;20017;-55
2023/06/30 09:27:50;;;;;;;15.50;10.43;;;24.80;61.50;;;;;;5027913;28;20037;-53
2023/06/30 09:30:16;;;;;;;13.90;10.45;;;24.80;61.80;;;;;;5047961;28;20103;-56
2023/06/30 09:32:42;;;;;;;14.48;9.80;;;24.70;61.80;;;;;;5027512;28;20397;-54
2023/06/30 09:35:08;;;;;;;14.98;10.23;;;24.80;61.90;;;;;;5048326;28;20626;-56
2023/06/30 09:37:41;;;;;;;14.65;11.02;;;24.90;61.90;;;;;;5027335;28;20033;-53
2023/06/30 09:40:11;;;;;;;14.15;10.60;;;24.90;61.90;;;;;;5028774;28;20044;-54
2023/06/30 09:42:37;;;;;;;16.15;10.68;;;24.90;62.10;;;;;;5046546;28;20021;-52
2023/06/30 09:45:02;;;;;;;12.75;9.95;;;24.90;61.90;;;;;;5048815;28;20454;-55
2023/06/30 09:47:28;;;;;;;16.25;11.40;;;25.00;62.20;;;;;;5027306;28;20079;-55
2023/06/30 09:49:54;;;;;;;13.40;10.55;;;25.00;62.20;;;;;;5028703;28;20045;-56
2023/06/30 09:52:24;;;;;;;15.68;11.80;;;25.00;62.10;;;;;;5041099;28;20106;-54
2023/06/30 09:54:49;;;;;;;15.70;11.70;;;24.90;61.70;;;;;;5028702;28;20026;-53
2023/06/30 09:57:15;;;;;;;16.50;12.40;;;24.80;62.10;;;;;;5040931;28;20037;-56
2023/06/30 09:59:41;;;;;;;14.43;11.38;;;24.90;61.70;;;;;;5028657;28;20034;-53
2023/06/30 10:02:06;;;;;;;15.85;11.80;;;25.00;61.40;;;;;;5045522;28;20051;-55
2023/06/30 10:04:31;;;;;;;13.98;10.90;;;25.00;60.90;;;;;;5040957;28;20404;-56
2023/06/30 10:06:58;;;;;;;15.93;11.38;;;24.80;61.60;;;;;;5024008;28;20088;-54
2023/06/30 10:09:24;;;;;;;14.85;11.48;;;24.80;62.10;;;;;;5027414;28;20026;-55
2023/06/30 10:11:56;;;;;;;15.18;11.45;;;24.90;62.20;;;;;;5027827;28;20426;-56
2023/06/30 10:14:30;;;;;;;14.73;11.07;;;25.00;61.60;;;;;;5042152;28;20579;-54
2023/06/30 10:16:57;;;;;;;16.27;11.20;;;25.10;61.20;;;;;;5027311;28;20037;-56
2023/06/30 10:19:24;;;;;;;13.60;10.65;;;25.10;60.80;;;;;;5040521;28;20590;-53
2023/06/30 10:21:49;;;;;;;14.95;11.68;;;25.30;60.50;;;;;;5027244;28;20030;-55
2023/06/30 10:24:19;;;;;;;16.17;11.75;;;25.50;60.10;;;;;;5042429;28;20409;-52
2023/06/30 10:26:47;;;;;;;15.43;11.30;;;25.60;59.70;;;;;;5026807;28;20512;-55
2023/06/30 10:29:13;;;;;;;16.33;11.93;;;25.80;58.80;;;;;;5041956;28;20032;-55
2023/06/30 10:31:39;;;;;;;15.25;11.23;;;26.00;58.00;;;;;;5047058;28;20212;-56
2023/06/30 10:34:05;;;;;;;18.40;12.68;;;26.10;57.60;;;;;;5044528;28;20223;-57
2023/06/30 10:36:32;;;;;;;14.88;11.38;;;26.50;56.30;;;;;;5026448;28;20028;-54
2023/06/30 10:38:57;;;;;;;17.55;13.05;;;26.60;56.10;;;;;;5046281;28;20049;-56
2023/06/30 10:41:23;;;;;;;17.17;13.15;;;26.50;55.20;;;;;;5025506;28;20056;-55
2023/06/30 10:44:08;;;;;;;16.88;12.75;;;26.60;55.90;;;;;;5045044;28;20531;-55
2023/06/30 10:46:52;;;;;;;13.97;11.47;;;26.90;54.90;;;;;;5007460;28;20030;-55
2023/06/30 10:49:23;;;;;;;13.85;10.38;;;27.20;54.60;;;;;;5010281;28;20464;-53
2023/06/30 10:51:50;;;;;;;21.23;11.20;;;27.60;54.40;;;;;;5047001;28;20021;-52
2023/06/30 10:54:40;;;;;;;13.48;10.75;;;27.80;54.50;;;;;;5027263;28;20068;-53
2023/06/30 10:57:15;;;;;;;13.80;11.05;;;28.00;54.60;;;;;;5021608;28;20033;-56
2023/06/30 10:59:48;;;;;;;13.30;10.63;;;27.90;54.70;;;;;;5010723;28;20052;-54
2023/06/30 11:02:16;;;;;;;15.63;11.40;;;27.90;54.10;;;;;;5027083;28;20122;-56
2023/06/30 11:04:43;;;;;;;14.20;11.63;;;27.90;54.10;;;;;;5038196;28;20334;-59
2023/06/30 11:07:11;;;;;;;13.68;10.68;;;27.90;53.70;;;;;;5025083;28;20657;-59
2023/06/30 11:09:48;;;;;;;14.93;10.48;;;27.80;53.20;;;;;;5043412;28;20370;-59
2023/06/30 11:12:23;;;;;;;13.73;10.30;;;27.60;51.50;;;;;;5030894;28;20104;-59
2023/06/30 11:15:00;;;;;;;14.57;9.50;;;27.00;52.00;;;;;;5015696;28;20159;-57
2023/06/30 11:17:51;;;;;;;12.15;9.63;;;26.30;53.50;;;;;;5050058;28;20037;-57
2023/06/30 11:20:17;;;;;;;13.13;9.48;;;25.70;55.90;;;;;;5029679;28;20094;-57
2023/06/30 11:23:05;;;;;;;10.70;8.77;;;25.10;57.70;;;;;;5030957;28;20041;-56
2023/06/30 11:25:33;;;;;;;12.88;9.05;;;24.70;60.30;;;;;;5021205;28;20120;-56
2023/06/30 11:28:01;;;;;;;16.33;10.40;;;24.20;62.50;;;;;;5050043;28;20078;-58
2023/06/30 11:30:28;;;;;;;13.60;10.68;;;24.00;65.30;;;;;;5028445;28;20114;-57
2023/06/30 11:32:56;;;;;;;16.38;11.65;;;23.70;67.90;;;;;;5049701;28;20025;-57
2023/06/30 11:35:22;;;;;;;15.18;10.43;;;23.50;71.10;;;;;;5028387;28;20025;-56
2023/06/30 11:37:50;;;;;;;15.35;10.75;;;23.40;72.80;;;;;;5049422;28;20493;-56
2023/06/30 11:40:16;;;;;;;14.77;11.48;;;23.20;74.50;;;;;;5028445;28;20168;-56
2023/06/30 11:42:42;;;;;;;18.08;12.40;;;23.20;77.00;;;;;;5049362;28;20119;-56
2023/06/30 11:45:08;;;;;;;18.17;13.40;;;23.20;76.30;;;;;;5037661;28;20025;-56
2023/06/30 11:47:34;;;;;;;22.98;15.25;;;23.10;81.20;;;;;;5030645;28;20033;-55
2023/06/30 11:50:10;;;;;;;20.60;14.15;;;22.70;83.20;;;;;;5036461;28;20022;-54
2023/06/30 11:52:38;;;;;;;25.77;14.60;;;22.50;85.10;;;;;;5011166;28;20124;-56
2023/06/30 11:55:08;;;;;;;19.23;13.75;;;22.50;84.50;;;;;;5031927;28;20038;-56
2023/06/30 11:57:38;;;;;;;24.92;14.82;;;22.60;84.70;;;;;;5050318;28;20028;-55
2023/06/30 12:00:12;;;;;;;23.98;16.92;;;22.50;87.40;;;;;;5029383;28;20405;-54
2023/06/30 12:02:42;;;;;;;20.75;13.95;;;22.60;87.30;;;;;;5011167;28;20026;-56
2023/06/30 12:05:12;;;;;;;18.92;13.32;;;22.60;87.00;;;;;;5031818;28;20115;-56
2023/06/30 12:07:38;;;;;;;23.45;15.30;;;22.90;86.40;;;;;;5050578;28;20395;-57
2023/06/30 12:10:05;;;;;;;22.10;15.80;;;22.90;87.60;;;;;;5029307;28;20041;-56
2023/06/30 12:12:32;;;;;;;23.92;16.23;;;23.00;86.40;;;;;;5050008;28;20028;-55
2023/06/30 12:14:58;;;;;;;25.33;16.35;;;22.90;88.50;;;;;;5029143;28;20036;-56
2023/06/30 12:17:27;;;;;;;21.90;15.43;;;22.80;86.10;;;;;;5049825;28;20439;-56
2023/06/30 12:19:52;;;;;;;20.35;14.57;;;22.90;86.80;;;;;;5028400;28;20026;-56
2023/06/30 12:22:27;;;;;;;23.85;15.85;;;23.00;83.10;;;;;;5049650;28;20691;-56
2023/06/30 12:24:58;;;;;;;23.27;15.85;;;23.20;82.50;;;;;;5028758;28;20034;-55
2023/06/30 12:27:27;;;;;;;22.00;15.48;;;23.40;80.50;;;;;;5049988;28;20040;-56
2023/06/30 12:29:54;;;;;;;22.05;15.48;;;23.50;79.50;;;;;;5037986;28;20041;-56
2023/06/30 12:32:20;;;;;;;24.98;16.88;;;23.60;77.60;;;;;;5030583;28;20067;-56
2023/06/30 12:34:46;;;;;;;22.80;16.10;;;23.60;77.10;;;;;;5033992;28;20030;-56